KSCF/SCF METAR and TAF weather

Enter ICAO airport designator
Station Type Date Time Source
KSCF METAR 2020/04/09 09:35 UTC NOAA

KSCF 090935Z AUTO 25013KT 4SM BR BKN008 24/24 A2986 RMK A01


Station Type Date Time Source
KSCF Decoded METAR 2020/04/09 09:35 UTC NOAA

South Marsh 268, LA, United States (KSCF) 29-06-57N 091-52-16W
Apr 09, 2020 - 05:35 AM EDT / 2020.04.09 0935 UTC
Wind: from the WSW (250 degrees) at 15 MPH (13 KT):0
Visibility: 4 mile(s):0
Sky conditions: mostly cloudy
Weather: mist
Temperature: 75 F (24 C)
Dew Point: 75 F (24 C)
Relative Humidity: 100%
Pressure (altimeter): 29.86 in. Hg (1011 hPa)
ob: KSCF 090935Z AUTO 25013KT 4SM BR BKN008 24/24 A2986 RMK A01
cycle: 9

Station Type Date Time Source
KSCF TAF UTC NOAA

Error!

Example: see airport list